AirNav   Bose Proflight Series 2 Wireless Aviation Headset
 
 987 users online  

9NC2 Flyers Airpark
Linden, North Carolina, USA

GOING TO LINDEN?


FAA INFORMATION EFFECTIVE 07 NOVEMBER 2019

Location

FAA Identifier: 9NC2
Lat/Long: 35-13-05.5860N 078-47-47.0840W
35-13.093100N 078-47.784733W
35.2182183,-78.7964122
(estimated)
Elevation: 115 ft. / 35 m (estimated)
Variation: 07W (1985)
From city: 4 miles N of LINDEN, NC
Time zone: UTC -5 (UTC -4 during Daylight Saving Time)
Zip code: 28356

Airport Operations

Airport use: Private use. Permission required prior to landing
Activation date: 06/1991
Control tower: no
ARTCC: WASHINGTON CENTER
FSS: RALEIGH FLIGHT SERVICE STATION
Attendance: UNATNDD
Wind indicator: yes
Segmented circle: no

Airport Communications

WX AWOS-3 at HRJ (10 nm N): 119.025 (910-814-3946)
WX ASOS at FAY (14 nm S): 121.25 (910-484-1546)

Nearby radio navigation aids

VOR radial/distance  VOR name  Freq  Var
FAYr019/14.5FAYETTEVILLE VOR/DME108.8004W
SDZr093/38.8SANDHILLS VORTAC111.8003W
RDUr190/39.3RALEIGH/DURHAM VORTAC117.2009W

 
NDB name  Hdg/Dist  Freq  Var  ID
FORT BRAGG017/4.839307WFGP ..-. --. .--.
POPE101/7.833807WPOB .--. --- -...
HARNETT213/14.241708WHQT .... --.- -
CLINTON313/25.841209WCTZ -.-. - --..
MACKALL077/35.727806WHFF .... ..-. ..-.
ROBESON028/38.535908WRSY .-. ... -.--

Airport Services

Runway Information

Runway 4/22

Dimensions: 2850 x 65 ft. / 869 x 20 m
Surface: turf
RUNWAY 4  RUNWAY 22
Traffic pattern: leftleft
Obstructions: 55 ft. trees, 150 ft. from runway70 ft. trees, 50 ft. from runway

Airport Ownership and Management from official FAA records

Ownership: Privately-owned
Owner: RONNIE BILL
657 FLYERS DRIVE
LINDEN, NC 28356
Phone (910) 980-0846
Manager: RONNIE BILL
657 FLYERS DRIVE
LINDEN, NC 28356
Phone (910) 980-0846

Airport Operational Statistics

Aircraft based on the field: 8
Single engine airplanes: 5
Ultralights: 3
    

Additional Remarks

FOR CD CTC WASHINGTON ARTCC AT 703-771-3587.

Instrument Procedures

There are no published instrument procedures at 9NC2.

Some nearby airports with instrument procedures:

KFBG - Simmons Army Airfield (9 nm SW)
KHRJ - Harnett Regional Jetport Airport (10 nm N)
KPOB - Pope Army Airfield (11 nm W)
KFAY - Fayetteville Regional Airport/Grannis Field (14 nm S)
5W4 - P K Airpark (23 nm SW)
 
Loc | Ops | Rwys | IFR | FBO | Links
Com | Nav | Svcs | Stats | Notes
Area around 9NC2 (Flyers Airpark)
 
Road maps at: MapQuest Bing Google
 
Aerial photo
WARNING: Photo may not be current or correct
Aerial photo of 9NC2 (Flyers Airpark)
Photo taken 05-Mar-2006
Photo taken from 1000 ft

Do you have a better or more recent aerial photo of Flyers Airpark that you would like to share? If so, please send us your photo.

 
Sectional chart

 
Airport distance calculator
Flying to Flyers Airpark? Find the distance to fly.

From to 9NC2

Sunrise and sunset
Times for 21-Nov-2019
 Local
(UTC-5)
 Zulu
(UTC)
Morning civil twilight06:3011:30
Sunrise06:5711:57
Sunset17:0522:05
Evening civil twilight17:3322:33

Current date and time
Zulu (UTC)  22-Nov-2019 02:26:51
Local (UTC-5)  21-Nov-2019 21:26:51
 
METAR
KFBG 
8nm SW 
220156Z AUTO 00000KT 10SM BKN130 08/06 A3019 RMK AO2 SLP227 T00750064 $
KHRJ 
10nm N 
220215Z AUTO 00000KT 10SM CLR 08/05 A3020 RMK AO2 T00820051
KPOB 
11nm W 
220156Z AUTO 00000KT 10SM BKN130 08/05 A3020 RMK AO2 SLP231 T00790050 $
KFAY 
15nm S 
220153Z 19004KT 10SM CLR 08/04 A3020 RMK AO2 SLP221 T00780039
TAF
KFBG 
8nm SW 
211800Z 2118/2224 18006KT 9999 FEW150 FEW210 QNH3014INS BECMG 2205/2206 22006KT 9999 FEW100 SCT150 510103 QNH3004INS BECMG 2213/2214 23010G15KT 9999 BKN100 510004 QNH3002INS BECMG 2220/2221 24006KT 9000 -RA BKN090 QNH2995INS TX18/2121Z TN10/2208Z
KPOB 
11nm W 
211800Z 2118/2224 18006KT 9999 FEW150 FEW210 QNH3014INS BECMG 2205/2206 22006KT 9999 FEW100 SCT150 510103 QNH3004INS BECMG 2213/2214 23010G15KT 9999 BKN100 510004 QNH3002INS BECMG 2220/2221 24006KT 9000 -RA BKN090 QNH2995INS TX17/2121Z TN10/2208Z
KFAY 
15nm S 
211730Z 2118/2218 22005KT P6SM BKN250
NOTAMs
Click for the latest NOTAMs
NOTAMs are issued by the DoD/FAA and will open in a separate window not controlled by AirNav.

 

 
 

Would you like to see your business listed on this page?

 If your business provides an interesting product or service to pilots, flight crews, aircraft, or users of the Flyers Airpark, you should consider listing it here.  To start the listing process, click on the button below
 
Add a business
 

Other Pages about Flyers Airpark

Update a link
 
Copyright © AirNav, LLC. All rights reserved. Privacy Policy  Contact